East Jefferson, New York
Current Conditions -  °F | °C
As of 9:55 PM on Friday 21 Nov 2014 (Local Time) from KNY0 Reporting Station
Overcast Overcast  
Wind Chill: 17°   Ceiling: 4800
Heat Index: 17°   Visibility: 10mi
Dew Point: 11°   Wind: 3mph
Humidity: 77%   Direction: 290°WNW
Pressure: 30.38"   Gusts: NA
Location:  42.5008°N, 74.6014°W
Report Text: KNY0 220255Z AUTO 29003KT 10SM OVC048 M08/M11 A3038 RMK AO2 T10811115
Loading
Personal Weather Stations






























Interactive Weather Map New forecast layout! Learn more

10-Day Weather Forecast

Advertisements
Track Severe Weather on mobile